createdAt,value
2018-03-23T00:00:28.729Z,0.00
2018-03-23T00:01:28.757Z,0.00
2018-03-23T00:02:28.785Z,0.00
2018-03-23T00:03:28.812Z,0.00
2018-03-23T00:04:28.837Z,0.00
2018-03-23T00:05:28.865Z,0.00
2018-03-23T00:06:28.893Z,0.00
2018-03-23T00:07:28.919Z,0.00
2018-03-23T00:08:28.948Z,0.00
2018-03-23T00:09:28.974Z,0.00
2018-03-23T00:10:29.001Z,0.00
2018-03-23T00:11:29.028Z,0.00
2018-03-23T00:12:29.055Z,0.00
2018-03-23T00:13:29.084Z,0.00
2018-03-23T00:14:29.110Z,0.00
2018-03-23T00:15:29.138Z,0.00
2018-03-23T00:16:29.163Z,0.00
2018-03-23T00:17:29.192Z,0.00
2018-03-23T00:18:29.218Z,0.00
2018-03-23T00:19:29.246Z,0.00
2018-03-23T00:20:29.272Z,0.00
2018-03-23T00:21:29.299Z,0.00
2018-03-23T00:22:29.327Z,0.00
2018-03-23T00:23:29.353Z,0.00
2018-03-23T00:24:29.382Z,0.00
2018-03-23T00:25:29.407Z,0.00
2018-03-23T00:26:29.436Z,0.00
2018-03-23T00:27:29.462Z,0.00
2018-03-23T00:28:29.488Z,0.00
2018-03-23T00:29:29.516Z,0.00
2018-03-23T00:30:29.545Z,0.00
2018-03-23T00:31:29.570Z,0.00
2018-03-23T00:32:29.597Z,0.00
2018-03-23T00:33:29.625Z,0.00
2018-03-23T00:34:29.653Z,0.00
2018-03-23T00:35:29.680Z,0.00
2018-03-23T00:36:29.707Z,0.00
2018-03-23T00:37:29.734Z,0.00
2018-03-23T00:38:29.760Z,0.00
2018-03-23T00:39:29.802Z,0.00
2018-03-23T00:40:29.815Z,0.00
2018-03-23T00:41:29.843Z,0.00
2018-03-23T00:42:29.870Z,0.00
2018-03-23T00:43:29.897Z,0.00
2018-03-23T00:44:29.924Z,0.00
2018-03-23T00:45:29.951Z,0.00
2018-03-23T00:46:29.978Z,0.00
2018-03-23T00:47:30.005Z,0.00
2018-03-23T00:48:30.079Z,0.00
2018-03-23T00:49:30.062Z,0.00
2018-03-23T00:50:30.091Z,0.00
2018-03-23T00:51:30.113Z,0.00
2018-03-23T00:52:30.141Z,0.00
2018-03-23T00:53:30.167Z,0.00
2018-03-23T00:54:30.201Z,0.00
2018-03-23T00:55:30.222Z,0.00
2018-03-23T00:56:30.250Z,0.00
2018-03-23T00:57:30.277Z,0.00
2018-03-23T00:58:30.307Z,0.00
2018-03-23T00:59:30.335Z,0.00
2018-03-23T01:00:30.388Z,0.00
2018-03-23T01:01:30.386Z,0.00
2018-03-23T01:02:30.413Z,0.00
2018-03-23T01:03:30.440Z,0.00
2018-03-23T01:04:30.467Z,0.00
2018-03-23T01:05:30.495Z,0.00
2018-03-23T01:06:30.586Z,0.00
2018-03-23T01:07:30.548Z,0.00
2018-03-23T01:08:30.574Z,0.00
2018-03-23T01:09:30.603Z,0.00
2018-03-23T01:10:30.629Z,0.00
2018-03-23T01:11:30.657Z,0.00
2018-03-23T01:12:30.684Z,0.00
2018-03-23T01:13:30.712Z,0.00
2018-03-23T01:14:30.775Z,0.00
2018-03-23T01:15:30.765Z,0.00
2018-03-23T01:16:30.793Z,0.00
2018-03-23T01:17:30.821Z,0.00
2018-03-23T01:18:30.850Z,0.00
2018-03-23T01:19:30.874Z,0.00
2018-03-23T01:20:30.911Z,0.00
2018-03-23T01:21:30.929Z,0.00
2018-03-23T01:22:30.956Z,0.00
2018-03-23T01:23:30.982Z,0.00
2018-03-23T01:24:31.010Z,0.00
2018-03-23T01:25:31.037Z,0.00
2018-03-23T01:26:31.067Z,0.00
2018-03-23T01:27:31.091Z,0.00
2018-03-23T01:28:31.118Z,0.00
2018-03-23T01:29:31.145Z,0.00
2018-03-23T01:30:31.172Z,0.00
2018-03-23T01:31:31.363Z,0.00
2018-03-23T01:32:31.233Z,0.00
2018-03-23T01:33:31.254Z,0.00
2018-03-23T01:34:31.283Z,0.00
2018-03-23T01:35:31.309Z,0.00
2018-03-23T01:36:31.385Z,0.00
2018-03-23T01:37:31.364Z,0.00
2018-03-23T01:38:31.391Z,0.00
2018-03-23T01:39:31.417Z,0.00
2018-03-23T01:40:31.444Z,0.00
2018-03-23T01:41:31.472Z,0.00
2018-03-23T01:42:31.500Z,0.00
2018-03-23T01:43:31.526Z,0.00
2018-03-23T01:44:31.554Z,0.00
2018-03-23T01:45:31.581Z,0.00
2018-03-23T01:46:31.608Z,0.00
2018-03-23T01:47:31.635Z,0.00
2018-03-23T01:48:31.663Z,0.00
2018-03-23T01:49:31.690Z,0.00
2018-03-23T01:50:31.717Z,0.00
2018-03-23T01:51:31.743Z,0.00
2018-03-23T01:52:31.771Z,0.00
2018-03-23T01:53:31.828Z,0.00
2018-03-23T01:54:31.825Z,0.00
2018-03-23T01:55:31.852Z,0.00
2018-03-23T01:56:31.880Z,0.00
2018-03-23T01:57:31.908Z,0.00
2018-03-23T01:58:31.934Z,0.00
2018-03-23T01:59:31.961Z,0.00
2018-03-23T02:00:31.988Z,0.00
2018-03-23T02:01:32.017Z,0.00
2018-03-23T02:02:32.044Z,0.00
2018-03-23T02:03:32.070Z,0.00
2018-03-23T02:04:32.098Z,0.00
2018-03-23T02:05:32.126Z,0.00
2018-03-23T02:06:32.153Z,0.00
2018-03-23T02:07:32.179Z,0.00
2018-03-23T02:08:32.206Z,0.00
2018-03-23T02:09:32.235Z,0.00
2018-03-23T02:10:32.261Z,0.00
2018-03-23T02:11:32.288Z,0.00
2018-03-23T02:12:32.315Z,0.00
2018-03-23T02:13:32.343Z,0.00
2018-03-23T02:14:32.370Z,0.00
2018-03-23T02:15:32.397Z,0.00
2018-03-23T02:16:32.425Z,0.00
2018-03-23T02:17:32.452Z,0.00
2018-03-23T02:18:32.480Z,0.00
2018-03-23T02:19:32.505Z,0.00
2018-03-23T02:20:32.533Z,0.00
2018-03-23T02:21:32.619Z,0.00
2018-03-23T02:22:32.588Z,0.00
2018-03-23T02:23:32.615Z,0.00
2018-03-23T02:24:32.642Z,0.00
2018-03-23T02:25:32.670Z,0.00
2018-03-23T02:26:32.697Z,0.00
2018-03-23T02:27:32.724Z,0.00
2018-03-23T02:28:32.762Z,0.00
2018-03-23T02:29:32.778Z,0.00
2018-03-23T02:30:32.807Z,0.00
2018-03-23T02:31:32.833Z,0.00
2018-03-23T02:32:32.860Z,0.00
2018-03-23T02:33:32.887Z,0.00
2018-03-23T02:34:32.915Z,0.00
2018-03-23T02:35:32.940Z,0.00
2018-03-23T02:36:32.969Z,0.00
2018-03-23T02:37:33.000Z,0.00
2018-03-23T02:38:33.024Z,0.00
2018-03-23T02:39:33.051Z,0.00
2018-03-23T02:40:33.078Z,0.00
2018-03-23T02:41:33.106Z,0.00
2018-03-23T02:42:33.133Z,0.00
2018-03-23T02:43:33.161Z,0.00
2018-03-23T02:44:33.187Z,0.00
2018-03-23T02:45:33.216Z,0.00
2018-03-23T02:46:33.242Z,0.00
2018-03-23T02:47:33.267Z,0.00
2018-03-23T02:48:33.297Z,0.00
2018-03-23T02:49:33.323Z,0.00
2018-03-23T02:50:33.362Z,0.00
2018-03-23T02:51:33.377Z,0.00
2018-03-23T02:52:33.408Z,0.00
2018-03-23T02:53:33.433Z,0.00
2018-03-23T02:54:33.459Z,0.00
2018-03-23T02:55:33.487Z,0.00
2018-03-23T02:56:33.517Z,0.00
2018-03-23T02:57:33.543Z,0.00
2018-03-23T02:58:33.570Z,0.00
2018-03-23T02:59:33.595Z,0.00
2018-03-23T03:00:33.623Z,0.00
2018-03-23T03:01:33.650Z,0.00
2018-03-23T03:02:33.679Z,0.00
2018-03-23T03:03:33.706Z,0.00
2018-03-23T03:04:33.734Z,0.00
2018-03-23T03:05:33.765Z,0.00
2018-03-23T03:06:33.789Z,0.00
2018-03-23T03:07:33.816Z,0.00
2018-03-23T03:08:33.842Z,0.00
2018-03-23T03:09:33.869Z,0.00
2018-03-23T03:10:33.897Z,0.00
2018-03-23T03:11:33.924Z,0.00
2018-03-23T03:12:33.956Z,0.00
2018-03-23T03:13:33.984Z,0.00
2018-03-23T03:14:34.010Z,0.00
2018-03-23T03:15:34.033Z,0.00
2018-03-23T03:16:34.062Z,0.00
2018-03-23T03:17:34.088Z,0.00
2018-03-23T03:18:34.116Z,0.00
2018-03-23T03:19:34.142Z,0.00
2018-03-23T03:20:34.169Z,0.00
2018-03-23T03:21:34.197Z,0.00
2018-03-23T03:22:34.226Z,0.00
2018-03-23T03:23:34.251Z,0.00
2018-03-23T03:24:34.279Z,0.00
2018-03-23T03:25:34.306Z,0.00
2018-03-23T03:26:34.342Z,0.00
2018-03-23T03:27:34.360Z,0.00
2018-03-23T03:28:34.387Z,0.00
2018-03-23T03:29:34.415Z,0.00
2018-03-23T03:30:34.444Z,0.00
2018-03-23T03:31:34.471Z,0.00
2018-03-23T03:32:34.496Z,0.00
2018-03-23T03:33:34.525Z,0.00
2018-03-23T03:34:34.555Z,0.00
2018-03-23T03:35:34.578Z,0.00
2018-03-23T03:36:34.608Z,0.00
2018-03-23T03:37:34.633Z,0.00
2018-03-23T03:38:34.666Z,0.00
2018-03-23T03:39:34.688Z,0.00
2018-03-23T03:40:34.715Z,0.00
2018-03-23T03:41:34.743Z,0.00
2018-03-23T03:42:34.774Z,0.00
2018-03-23T03:43:34.800Z,0.00
2018-03-23T03:44:34.824Z,0.00
2018-03-23T03:45:34.852Z,0.00
2018-03-23T03:46:34.880Z,0.00
2018-03-23T03:47:34.906Z,0.00
2018-03-23T03:48:34.933Z,0.00
2018-03-23T03:49:34.962Z,0.00
2018-03-23T03:50:34.989Z,0.00
2018-03-23T03:51:35.016Z,0.00
2018-03-23T03:52:35.043Z,0.00
2018-03-23T03:53:35.073Z,0.00
2018-03-23T03:54:35.098Z,0.00
2018-03-23T03:55:35.125Z,0.00
2018-03-23T03:56:35.153Z,0.00
2018-03-23T03:57:35.180Z,0.00
2018-03-23T03:58:35.207Z,0.00
2018-03-23T03:59:35.234Z,0.00
2018-03-23T04:00:35.261Z,0.00
2018-03-23T04:01:35.289Z,0.00
2018-03-23T04:02:35.317Z,0.00
2018-03-23T04:03:35.350Z,0.00
2018-03-23T04:04:35.370Z,0.00
2018-03-23T04:05:35.398Z,0.00
2018-03-23T04:06:35.426Z,0.00
2018-03-23T04:07:35.458Z,0.00
2018-03-23T04:08:35.480Z,0.00
2018-03-23T04:09:35.507Z,0.00
2018-03-23T04:10:35.535Z,0.00
2018-03-23T04:11:35.561Z,0.00
2018-03-23T04:12:35.588Z,0.00
2018-03-23T04:13:35.616Z,0.00
2018-03-23T04:14:35.643Z,0.00
2018-03-23T04:15:35.670Z,0.00
2018-03-23T04:16:35.697Z,0.00
2018-03-23T04:17:35.726Z,0.00
2018-03-23T04:18:35.751Z,0.00
2018-03-23T04:19:35.799Z,0.00
2018-03-23T04:20:35.806Z,0.00
2018-03-23T04:21:35.833Z,0.00
2018-03-23T04:22:35.860Z,0.00
2018-03-23T04:23:35.887Z,0.00
2018-03-23T04:24:35.914Z,0.00
2018-03-23T04:25:35.941Z,0.00
2018-03-23T04:26:35.969Z,0.00
2018-03-23T04:27:35.996Z,0.00
2018-03-23T04:28:36.027Z,0.00
2018-03-23T04:29:36.051Z,0.00
2018-03-23T04:30:36.077Z,0.00
2018-03-23T04:31:36.104Z,0.00
2018-03-23T04:32:36.132Z,0.00
2018-03-23T04:33:36.159Z,0.00
2018-03-23T04:34:36.186Z,0.00
2018-03-23T04:35:36.214Z,0.00
2018-03-23T04:36:36.242Z,0.00
2018-03-23T04:37:36.268Z,0.00
2018-03-23T04:38:36.299Z,0.00
2018-03-23T04:39:36.322Z,0.00
2018-03-23T04:40:36.350Z,0.00
2018-03-23T04:41:36.377Z,0.00
2018-03-23T04:42:36.404Z,0.00
2018-03-23T04:43:36.430Z,0.00
2018-03-23T04:44:36.458Z,0.00
2018-03-23T04:45:36.486Z,0.00
2018-03-23T04:46:36.513Z,0.00
2018-03-23T04:47:36.539Z,0.00
2018-03-23T04:48:36.567Z,0.00
2018-03-23T04:49:36.594Z,0.00
2018-03-23T04:50:36.625Z,0.00
2018-03-23T04:51:36.651Z,0.00
2018-03-23T04:52:36.674Z,0.00
2018-03-23T04:53:36.702Z,0.00
2018-03-23T04:54:36.730Z,0.00
2018-03-23T04:55:36.756Z,0.00
2018-03-23T04:56:36.784Z,0.00
2018-03-23T04:57:36.811Z,0.00
2018-03-23T04:58:36.840Z,0.00
2018-03-23T04:59:36.864Z,0.00
2018-03-23T05:00:36.892Z,0.00
2018-03-23T05:01:36.920Z,0.00
2018-03-23T05:02:36.948Z,0.00
2018-03-23T05:03:36.973Z,0.00
2018-03-23T05:04:37.000Z,0.00
2018-03-23T05:05:37.027Z,0.00
2018-03-23T05:06:37.056Z,0.00
2018-03-23T05:07:37.082Z,0.00
2018-03-23T05:08:37.108Z,0.00
2018-03-23T05:09:37.137Z,0.00
2018-03-23T05:10:37.164Z,0.00
2018-03-23T05:11:37.191Z,0.00
2018-03-23T05:12:37.216Z,0.00
2018-03-23T05:13:37.245Z,0.00
2018-03-23T05:14:37.272Z,0.00
2018-03-23T05:15:37.299Z,0.00
2018-03-23T05:16:37.327Z,0.00
2018-03-23T05:17:37.354Z,0.00
2018-03-23T05:18:37.381Z,0.00
2018-03-23T05:19:37.407Z,0.00
2018-03-23T05:20:37.434Z,0.00
2018-03-23T05:21:37.462Z,0.00
2018-03-23T05:22:37.490Z,0.00
2018-03-23T05:23:37.516Z,0.00
2018-03-23T05:24:37.543Z,0.00
2018-03-23T05:25:37.571Z,0.00
2018-03-23T05:26:37.599Z,0.00
2018-03-23T05:27:37.625Z,0.00
2018-03-23T05:28:37.652Z,0.00
2018-03-23T05:29:37.679Z,0.00
2018-03-23T05:30:37.707Z,0.00
2018-03-23T05:31:37.759Z,0.00
2018-03-23T05:32:37.760Z,0.00
2018-03-23T05:33:37.786Z,0.00
2018-03-23T05:34:37.815Z,0.00
2018-03-23T05:35:37.841Z,5.63
2018-03-23T05:36:37.869Z,5.63
2018-03-23T05:37:37.897Z,5.63
2018-03-23T05:38:37.923Z,5.63
2018-03-23T05:39:37.950Z,5.63
2018-03-23T05:40:38.032Z,5.63
2018-03-23T05:41:38.005Z,5.63
2018-03-23T05:42:38.032Z,5.63
2018-03-23T05:43:38.059Z,5.63
2018-03-23T05:44:38.085Z,5.63
2018-03-23T05:45:38.113Z,5.63
2018-03-23T05:46:38.140Z,5.63
2018-03-23T05:47:38.171Z,11.25
2018-03-23T05:48:38.194Z,11.25
2018-03-23T05:49:38.220Z,11.25
2018-03-23T05:50:38.249Z,11.25
2018-03-23T05:51:38.278Z,11.25
2018-03-23T05:52:38.303Z,11.25
2018-03-23T05:53:38.330Z,11.25
2018-03-23T05:54:38.357Z,16.88
2018-03-23T05:55:38.384Z,16.88
2018-03-23T05:56:38.410Z,16.88
2018-03-23T05:57:38.438Z,16.88
2018-03-23T05:58:38.466Z,16.88
2018-03-23T05:59:38.494Z,16.88
2018-03-23T06:00:38.520Z,16.88
2018-03-23T06:01:38.552Z,22.50
2018-03-23T06:02:38.574Z,22.50
2018-03-23T06:03:38.601Z,28.13
2018-03-23T06:04:38.628Z,28.13
2018-03-23T06:05:38.656Z,33.75
2018-03-23T06:06:38.682Z,39.38
2018-03-23T06:07:38.708Z,45.00
2018-03-23T06:08:38.737Z,45.00
2018-03-23T06:09:38.764Z,50.63
2018-03-23T06:10:38.791Z,50.63
2018-03-23T06:11:38.817Z,56.25
2018-03-23T06:12:38.847Z,56.25
2018-03-23T06:13:38.873Z,56.25
2018-03-23T06:14:38.955Z,56.25
2018-03-23T06:15:38.928Z,56.25
2018-03-23T06:16:38.953Z,56.25
2018-03-23T06:17:38.981Z,56.25
2018-03-23T06:18:39.009Z,61.88
2018-03-23T06:19:39.036Z,61.88
2018-03-23T06:20:39.063Z,61.88
2018-03-23T06:21:39.096Z,61.88
2018-03-23T06:22:39.131Z,61.88
2018-03-23T06:23:39.146Z,61.88
2018-03-23T06:24:39.173Z,61.88
2018-03-23T06:25:39.202Z,61.88
2018-03-23T06:26:39.228Z,61.88
2018-03-23T06:27:39.255Z,61.88
2018-03-23T06:28:39.282Z,67.50
2018-03-23T06:29:39.310Z,67.50
2018-03-23T06:30:39.338Z,67.50
2018-03-23T06:31:39.365Z,67.50
2018-03-23T06:32:39.392Z,67.50
2018-03-23T06:33:39.419Z,67.50
2018-03-23T06:34:39.447Z,73.13
2018-03-23T06:35:39.475Z,78.75
2018-03-23T06:36:39.502Z,84.38
2018-03-23T06:37:39.530Z,90.00
2018-03-23T06:38:39.562Z,95.63
2018-03-23T06:39:39.584Z,101.25
2018-03-23T06:40:39.613Z,106.88
2018-03-23T06:41:39.640Z,112.50
2018-03-23T06:42:39.698Z,118.13
2018-03-23T06:43:39.693Z,118.13
2018-03-23T06:44:39.724Z,118.13
2018-03-23T06:45:39.750Z,123.75
2018-03-23T06:46:39.791Z,118.13
2018-03-23T06:47:39.810Z,112.50
2018-03-23T06:48:39.841Z,112.50
2018-03-23T06:49:39.860Z,106.88
2018-03-23T06:50:39.889Z,112.50
2018-03-23T06:51:39.917Z,112.50
2018-03-23T06:52:39.944Z,123.75
2018-03-23T06:53:39.971Z,123.75
2018-03-23T06:54:40.000Z,129.38
2018-03-23T06:55:40.025Z,140.63
2018-03-23T06:56:40.055Z,146.25
2018-03-23T06:57:40.082Z,151.88
2018-03-23T06:58:40.112Z,157.50
2018-03-23T06:59:40.137Z,163.13
2018-03-23T07:00:40.166Z,168.75
2018-03-23T07:01:40.193Z,163.13
2018-03-23T07:02:40.221Z,151.88
2018-03-23T07:03:40.248Z,140.63
2018-03-23T07:04:40.275Z,135.00
2018-03-23T07:05:40.305Z,123.75
2018-03-23T07:06:40.331Z,118.13
2018-03-23T07:07:40.361Z,118.13
2018-03-23T07:08:40.388Z,123.75
2018-03-23T07:09:40.416Z,123.75
2018-03-23T07:10:40.444Z,123.75
2018-03-23T07:11:40.472Z,123.75
2018-03-23T07:12:40.501Z,129.38
2018-03-23T07:13:40.527Z,129.38
2018-03-23T07:14:40.556Z,129.38
2018-03-23T07:15:40.584Z,123.75
2018-03-23T07:16:40.614Z,118.13
2018-03-23T07:17:40.642Z,112.50
2018-03-23T07:18:40.671Z,112.50
2018-03-23T07:19:40.698Z,106.88
2018-03-23T07:20:40.728Z,106.88
2018-03-23T07:21:40.754Z,106.88
2018-03-23T07:22:40.784Z,101.25
2018-03-23T07:23:40.812Z,101.25
2018-03-23T07:24:40.839Z,101.25
2018-03-23T07:25:40.869Z,101.25
2018-03-23T07:26:40.897Z,95.63
2018-03-23T07:27:40.928Z,95.63
2018-03-23T07:28:40.954Z,90.00
2018-03-23T07:29:40.982Z,90.00
2018-03-23T07:30:41.012Z,84.38
2018-03-23T07:31:41.040Z,78.75
2018-03-23T07:32:41.069Z,78.75
2018-03-23T07:33:41.097Z,73.13
2018-03-23T07:34:41.126Z,73.13
2018-03-23T07:35:41.153Z,84.38
2018-03-23T07:36:41.181Z,78.75
2018-03-23T07:37:41.253Z,78.75
2018-03-23T07:38:41.238Z,84.38
2018-03-23T07:39:41.267Z,84.38
2018-03-23T07:40:41.297Z,84.38
2018-03-23T07:41:41.325Z,90.00
2018-03-23T07:42:41.354Z,90.00
2018-03-23T07:43:41.381Z,95.63
2018-03-23T07:44:41.410Z,95.63
2018-03-23T07:45:41.439Z,101.25
2018-03-23T07:46:41.471Z,101.25
2018-03-23T07:47:41.494Z,101.25
2018-03-23T07:48:41.523Z,101.25
2018-03-23T07:49:41.552Z,101.25
2018-03-23T07:50:41.582Z,101.25
2018-03-23T07:51:41.610Z,101.25
2018-03-23T07:52:41.640Z,95.63
2018-03-23T07:53:41.713Z,95.63
2018-03-23T07:54:41.696Z,95.63
2018-03-23T07:55:41.724Z,95.63
2018-03-23T07:56:41.752Z,101.25
2018-03-23T07:57:41.782Z,106.88
2018-03-23T07:58:41.809Z,106.88
2018-03-23T07:59:41.837Z,106.88
2018-03-23T08:00:41.867Z,112.50
2018-03-23T08:01:41.896Z,118.13
2018-03-23T08:02:41.925Z,123.75
2018-03-23T08:03:41.958Z,123.75
2018-03-23T08:04:41.982Z,129.38
2018-03-23T08:05:42.011Z,129.38
2018-03-23T08:06:42.050Z,129.38
2018-03-23T08:07:42.068Z,129.38
2018-03-23T08:08:42.098Z,129.38
2018-03-23T08:09:42.130Z,129.38
2018-03-23T08:10:42.155Z,129.38
2018-03-23T08:11:42.185Z,129.38
2018-03-23T08:12:42.213Z,129.38
2018-03-23T08:13:42.242Z,129.38
2018-03-23T08:14:42.271Z,129.38
2018-03-23T08:15:42.299Z,129.38
2018-03-23T08:16:42.328Z,129.38
2018-03-23T08:17:42.357Z,135.00
2018-03-23T08:18:42.394Z,135.00
2018-03-23T08:19:42.415Z,135.00
2018-03-23T08:20:42.446Z,140.63
2018-03-23T08:21:42.473Z,140.63
2018-03-23T08:22:42.503Z,140.63
2018-03-23T08:23:42.531Z,140.63
2018-03-23T08:24:42.561Z,146.25
2018-03-23T08:25:42.589Z,151.88
2018-03-23T08:26:42.618Z,163.13
2018-03-23T08:27:42.646Z,180.00
2018-03-23T08:28:42.677Z,191.25
2018-03-23T08:29:42.705Z,208.13
2018-03-23T08:30:42.735Z,225.00
2018-03-23T08:31:42.764Z,241.88
2018-03-23T08:32:42.794Z,275.63
2018-03-23T08:33:42.823Z,286.88
2018-03-23T08:34:42.852Z,303.75
2018-03-23T08:35:42.881Z,309.38
2018-03-23T08:36:42.911Z,309.38
2018-03-23T08:37:42.940Z,303.75
2018-03-23T08:38:42.970Z,298.13
2018-03-23T08:39:42.999Z,292.50
2018-03-23T08:40:43.029Z,292.50
2018-03-23T08:41:43.064Z,286.88
2018-03-23T08:42:43.089Z,286.88
2018-03-23T08:43:43.118Z,286.88
2018-03-23T08:44:43.148Z,286.88
2018-03-23T08:45:43.178Z,286.88
2018-03-23T08:46:43.208Z,286.88
2018-03-23T08:47:43.244Z,281.25
2018-03-23T08:48:43.267Z,281.25
2018-03-23T08:49:43.298Z,286.88
2018-03-23T08:50:43.328Z,281.25
2018-03-23T08:51:43.358Z,275.63
2018-03-23T08:52:43.388Z,275.63
2018-03-23T08:53:43.418Z,281.25
2018-03-23T08:54:43.448Z,281.25
2018-03-23T08:55:43.478Z,292.50
2018-03-23T08:56:43.508Z,309.38
2018-03-23T08:57:43.540Z,320.63
2018-03-23T08:58:43.569Z,326.25
2018-03-23T08:59:43.598Z,337.50
2018-03-23T09:00:43.631Z,343.13
2018-03-23T09:01:43.659Z,337.50
2018-03-23T09:02:43.690Z,326.25
2018-03-23T09:03:43.719Z,326.25
2018-03-23T09:04:43.750Z,331.88
2018-03-23T09:05:43.782Z,348.75
2018-03-23T09:06:43.812Z,348.75
2018-03-23T09:07:43.841Z,320.63
2018-03-23T09:08:43.873Z,309.38
2018-03-23T09:09:44.011Z,303.75
2018-03-23T09:10:43.936Z,292.50
2018-03-23T09:11:43.965Z,303.75
2018-03-23T09:12:43.998Z,315.00
2018-03-23T09:13:44.027Z,320.63
2018-03-23T09:14:44.059Z,320.63
2018-03-23T09:15:44.089Z,315.00
2018-03-23T09:16:44.157Z,315.00
2018-03-23T09:17:44.151Z,320.63
2018-03-23T09:18:44.387Z,315.00
2018-03-23T09:19:44.213Z,315.00
2018-03-23T09:20:44.245Z,320.63
2018-03-23T09:21:44.274Z,326.25
2018-03-23T09:22:44.311Z,331.88
2018-03-23T09:23:44.338Z,354.38
2018-03-23T09:24:44.369Z,371.25
2018-03-23T09:25:44.400Z,371.25
2018-03-23T09:26:44.433Z,354.38
2018-03-23T09:27:44.463Z,343.13
2018-03-23T09:28:44.495Z,326.25
2018-03-23T09:29:44.532Z,315.00
2018-03-23T09:30:44.559Z,303.75
2018-03-23T09:31:44.590Z,286.88
2018-03-23T09:32:44.622Z,281.25
2018-03-23T09:33:44.653Z,270.00
2018-03-23T09:34:44.686Z,258.75
2018-03-23T09:35:44.716Z,264.38
2018-03-23T09:36:44.748Z,258.75
2018-03-23T09:37:44.781Z,253.13
2018-03-23T09:38:44.814Z,275.63
2018-03-23T09:39:44.844Z,275.63
2018-03-23T09:40:44.875Z,270.00
2018-03-23T09:41:44.907Z,270.00
2018-03-23T09:42:44.941Z,270.00
2018-03-23T09:43:44.972Z,275.63
2018-03-23T09:44:45.001Z,281.25
2018-03-23T09:45:45.035Z,275.63
2018-03-23T09:46:45.067Z,275.63
2018-03-23T09:47:45.094Z,270.00
2018-03-23T09:48:45.152Z,258.75
2018-03-23T09:49:45.160Z,253.13
2018-03-23T09:50:45.192Z,253.13
2018-03-23T09:51:45.222Z,253.13
2018-03-23T09:52:45.255Z,253.13
2018-03-23T09:53:45.291Z,253.13
2018-03-23T09:54:45.318Z,253.13
2018-03-23T09:55:45.349Z,258.75
2018-03-23T09:56:45.380Z,264.38
2018-03-23T09:57:45.412Z,270.00
2018-03-23T09:58:45.444Z,275.63
2018-03-23T09:59:45.475Z,281.25
2018-03-23T10:00:45.507Z,298.13
2018-03-23T10:01:45.539Z,320.63
2018-03-23T10:02:45.575Z,354.38
2018-03-23T10:03:45.697Z,382.50
2018-03-23T10:04:45.633Z,388.13
2018-03-23T10:05:45.666Z,399.38
2018-03-23T10:06:45.696Z,421.88
2018-03-23T10:07:45.732Z,444.38
2018-03-23T10:08:45.781Z,466.88
2018-03-23T10:09:45.792Z,478.13
2018-03-23T10:10:45.825Z,483.75
2018-03-23T10:11:45.855Z,472.50
2018-03-23T10:12:45.888Z,450.00
2018-03-23T10:13:45.920Z,438.75
2018-03-23T10:14:45.952Z,433.13
2018-03-23T10:15:45.984Z,421.88
2018-03-23T10:16:46.017Z,416.25
2018-03-23T10:17:46.048Z,421.88
2018-03-23T10:18:46.080Z,421.88
2018-03-23T10:19:46.113Z,421.88
2018-03-23T10:20:46.147Z,410.63
2018-03-23T10:21:46.179Z,421.88
2018-03-23T10:22:46.212Z,433.13
2018-03-23T10:23:46.244Z,433.13
2018-03-23T10:24:46.278Z,433.13
2018-03-23T10:25:46.310Z,427.50
2018-03-23T10:26:46.342Z,433.13
2018-03-23T10:27:46.376Z,433.13
2018-03-23T10:28:46.408Z,438.75
2018-03-23T10:29:46.441Z,450.00
2018-03-23T10:30:46.473Z,450.00
2018-03-23T10:31:46.508Z,450.00
2018-03-23T10:32:46.542Z,450.00
2018-03-23T10:33:46.574Z,450.00
2018-03-23T10:34:46.607Z,466.88
2018-03-23T10:35:46.643Z,495.00
2018-03-23T10:36:46.673Z,500.63
2018-03-23T10:37:46.707Z,500.63
2018-03-23T10:38:46.740Z,500.63
2018-03-23T10:39:46.773Z,500.63
2018-03-23T10:40:46.806Z,483.75
2018-03-23T10:41:46.840Z,495.00
2018-03-23T10:42:46.876Z,517.50
2018-03-23T10:43:46.907Z,523.13
2018-03-23T10:44:46.939Z,506.25
2018-03-23T10:45:47.018Z,506.25
2018-03-23T10:46:47.060Z,506.25
2018-03-23T10:47:47.046Z,489.38
2018-03-23T10:48:47.074Z,478.13
2018-03-23T10:49:47.109Z,483.75
2018-03-23T10:50:47.141Z,438.75
2018-03-23T10:51:47.175Z,416.25
2018-03-23T10:52:47.209Z,438.75
2018-03-23T10:53:47.242Z,478.13
2018-03-23T10:54:47.277Z,466.88
2018-03-23T10:55:47.311Z,450.00
2018-03-23T10:56:47.344Z,438.75
2018-03-23T10:57:47.377Z,421.88
2018-03-23T10:58:47.411Z,421.88
2018-03-23T10:59:47.445Z,410.63
2018-03-23T11:00:47.478Z,421.88
2018-03-23T11:01:47.515Z,438.75
2018-03-23T11:02:47.547Z,421.88
2018-03-23T11:03:47.586Z,416.25
2018-03-23T11:04:47.617Z,410.63
2018-03-23T11:05:47.647Z,399.38
2018-03-23T11:06:47.684Z,393.75
2018-03-23T11:07:47.715Z,393.75
2018-03-23T11:08:47.748Z,399.38
2018-03-23T11:09:47.784Z,405.00
2018-03-23T11:10:47.816Z,399.38
2018-03-23T11:11:47.850Z,399.38
2018-03-23T11:12:47.884Z,393.75
2018-03-23T11:13:47.919Z,399.38
2018-03-23T11:14:47.953Z,399.38
2018-03-23T11:15:47.991Z,399.38
2018-03-23T11:16:48.022Z,399.38
2018-03-23T11:17:48.054Z,405.00
2018-03-23T11:18:48.088Z,410.63
2018-03-23T11:19:48.121Z,416.25
2018-03-23T11:20:48.156Z,421.88
2018-03-23T11:21:48.189Z,427.50
2018-03-23T11:22:48.224Z,433.13
2018-03-23T11:23:48.257Z,438.75
2018-03-23T11:24:48.290Z,450.00
2018-03-23T11:25:48.327Z,455.63
2018-03-23T11:26:48.359Z,461.25
2018-03-23T11:27:48.393Z,466.88
2018-03-23T11:28:48.426Z,461.25
2018-03-23T11:29:48.460Z,461.25
2018-03-23T11:30:48.506Z,461.25
2018-03-23T11:31:48.530Z,455.63
2018-03-23T11:32:48.565Z,455.63
2018-03-23T11:33:48.597Z,455.63
2018-03-23T11:34:48.631Z,455.63
2018-03-23T11:35:48.669Z,461.25
2018-03-23T11:36:48.702Z,455.63
2018-03-23T11:37:48.733Z,455.63
2018-03-23T11:38:48.767Z,461.25
2018-03-23T11:39:48.800Z,461.25
2018-03-23T11:40:48.847Z,461.25
2018-03-23T11:41:48.868Z,472.50
2018-03-23T11:42:48.903Z,466.88
2018-03-23T11:43:48.936Z,466.88
2018-03-23T11:44:48.984Z,450.00
2018-03-23T11:45:49.006Z,444.38
2018-03-23T11:46:49.041Z,444.38
2018-03-23T11:47:49.073Z,438.75
2018-03-23T11:48:49.109Z,438.75
2018-03-23T11:49:49.142Z,438.75
2018-03-23T11:50:49.274Z,438.75
2018-03-23T11:51:49.209Z,438.75
2018-03-23T11:52:49.246Z,438.75
2018-03-23T11:53:49.281Z,444.38
2018-03-23T11:54:49.316Z,450.00
2018-03-23T11:55:49.346Z,450.00
2018-03-23T11:56:49.379Z,444.38
2018-03-23T11:57:49.415Z,444.38
2018-03-23T11:58:49.448Z,444.38
2018-03-23T11:59:49.482Z,455.63
2018-03-23T12:00:49.517Z,472.50
2018-03-23T12:01:49.551Z,483.75
2018-03-23T12:02:49.586Z,500.63
2018-03-23T12:03:49.623Z,506.25
2018-03-23T12:04:49.652Z,506.25
2018-03-23T12:05:49.689Z,511.88
2018-03-23T12:06:49.722Z,511.88
2018-03-23T12:07:49.756Z,517.50
2018-03-23T12:08:49.789Z,523.13
2018-03-23T12:09:49.824Z,528.75
2018-03-23T12:10:49.860Z,540.00
2018-03-23T12:11:49.892Z,556.88
2018-03-23T12:12:49.926Z,573.75
2018-03-23T12:13:49.961Z,596.25
2018-03-23T12:14:49.996Z,607.50
2018-03-23T12:15:50.030Z,630.00
2018-03-23T12:16:50.065Z,646.88
2018-03-23T12:17:50.099Z,646.88
2018-03-23T12:18:50.133Z,658.13
2018-03-23T12:19:50.166Z,675.00
2018-03-23T12:20:50.201Z,725.63
2018-03-23T12:21:50.237Z,736.88
2018-03-23T12:22:50.272Z,736.88
2018-03-23T12:23:50.306Z,720.00
2018-03-23T12:24:50.341Z,742.50
2018-03-23T12:25:50.375Z,686.25
2018-03-23T12:26:50.413Z,658.13
2018-03-23T12:27:50.449Z,630.00
2018-03-23T12:28:50.480Z,607.50
2018-03-23T12:29:50.517Z,590.63
2018-03-23T12:30:50.556Z,585.00
2018-03-23T12:31:50.587Z,585.00
2018-03-23T12:32:50.623Z,573.75
2018-03-23T12:33:50.659Z,568.13
2018-03-23T12:34:50.764Z,568.13
2018-03-23T12:35:50.729Z,573.75
2018-03-23T12:36:50.764Z,585.00
2018-03-23T12:37:50.807Z,601.88
2018-03-23T12:38:50.835Z,618.75
2018-03-23T12:39:50.870Z,624.38
2018-03-23T12:40:50.906Z,630.00
2018-03-23T12:41:50.940Z,635.63
2018-03-23T12:42:50.977Z,635.63
2018-03-23T12:43:51.011Z,635.63
2018-03-23T12:44:51.047Z,596.25
2018-03-23T12:45:51.081Z,579.38
2018-03-23T12:46:51.121Z,562.50
2018-03-23T12:47:51.153Z,545.63
2018-03-23T12:48:51.188Z,540.00
2018-03-23T12:49:51.223Z,545.63
2018-03-23T12:50:51.316Z,540.00
2018-03-23T12:51:51.294Z,545.63
2018-03-23T12:52:51.330Z,534.38